sensor_id;sensor_type;location;lat;lon;timestamp;temperature;humidity
54930;DHT22;40833;53.238;6.576;2023-12-28T00:01:21;9.00;99.90
54930;DHT22;40833;53.238;6.576;2023-12-28T00:03:47;9.00;99.90
54930;DHT22;40833;53.238;6.576;2023-12-28T00:06:13;9.20;99.90
54930;DHT22;40833;53.238;6.576;2023-12-28T00:08:39;9.00;99.90
54930;DHT22;40833;53.238;6.576;2023-12-28T00:11:04;9.30;99.90
54930;DHT22;40833;53.238;6.576;2023-12-28T00:13:30;9.00;99.90
54930;DHT22;40833;53.238;6.576;2023-12-28T00:15:56;9.00;99.90
54930;DHT22;40833;53.238;6.576;2023-12-28T00:18:21;9.00;99.90
54930;DHT22;40833;53.238;6.576;2023-12-28T00:20:47;9.00;99.90
54930;DHT22;40833;53.238;6.576;2023-12-28T00:23:13;9.00;99.90
54930;DHT22;40833;53.238;6.576;2023-12-28T00:25:38;8.90;99.90
54930;DHT22;40833;53.238;6.576;2023-12-28T00:28:04;9.00;99.90
54930;DHT22;40833;53.238;6.576;2023-12-28T00:30:30;9.00;99.90
54930;DHT22;40833;53.238;6.576;2023-12-28T00:32:57;9.00;99.90
54930;DHT22;40833;53.238;6.576;2023-12-28T00:35:23;9.00;99.90
54930;DHT22;40833;53.238;6.576;2023-12-28T00:37:49;9.00;99.90
54930;DHT22;40833;53.238;6.576;2023-12-28T00:40:15;9.00;99.90
54930;DHT22;40833;53.238;6.576;2023-12-28T00:42:41;9.00;99.90
54930;DHT22;40833;53.238;6.576;2023-12-28T00:45:08;8.90;99.90
54930;DHT22;40833;53.238;6.576;2023-12-28T00:47:33;8.90;99.90
54930;DHT22;40833;53.238;6.576;2023-12-28T00:49:59;8.90;99.90
54930;DHT22;40833;53.238;6.576;2023-12-28T00:52:25;8.90;99.90
54930;DHT22;40833;53.238;6.576;2023-12-28T00:54:50;8.90;99.90
54930;DHT22;40833;53.238;6.576;2023-12-28T00:57:16;9.10;99.90
54930;DHT22;40833;53.238;6.576;2023-12-28T00:59:42;8.90;99.90
54930;DHT22;40833;53.238;6.576;2023-12-28T01:02:09;8.90;99.90
54930;DHT22;40833;53.238;6.576;2023-12-28T01:04:34;8.90;99.90
54930;DHT22;40833;53.238;6.576;2023-12-28T01:07:00;8.90;99.90
54930;DHT22;40833;53.238;6.576;2023-12-28T01:09:28;8.90;99.90
54930;DHT22;40833;53.238;6.576;2023-12-28T01:11:53;9.10;99.90
54930;DHT22;40833;53.238;6.576;2023-12-28T01:14:19;8.90;99.90
54930;DHT22;40833;53.238;6.576;2023-12-28T01:16:45;8.90;99.90
54930;DHT22;40833;53.238;6.576;2023-12-28T01:19:10;8.90;99.90
54930;DHT22;40833;53.238;6.576;2023-12-28T01:21:37;8.90;99.90
54930;DHT22;40833;53.238;6.576;2023-12-28T01:24:02;9.00;99.90
54930;DHT22;40833;53.238;6.576;2023-12-28T01:26:28;8.80;99.90
54930;DHT22;40833;53.238;6.576;2023-12-28T01:28:54;8.80;99.90
54930;DHT22;40833;53.238;6.576;2023-12-28T01:31:19;8.80;99.90
54930;DHT22;40833;53.238;6.576;2023-12-28T01:33:45;8.90;99.90
54930;DHT22;40833;53.238;6.576;2023-12-28T01:36:18;8.80;99.90
54930;DHT22;40833;53.238;6.576;2023-12-28T01:38:44;8.80;99.90
54930;DHT22;40833;53.238;6.576;2023-12-28T01:41:09;8.70;99.90
54930;DHT22;40833;53.238;6.576;2023-12-28T01:43:35;9.00;99.90
54930;DHT22;40833;53.238;6.576;2023-12-28T01:46:01;8.70;99.90
54930;DHT22;40833;53.238;6.576;2023-12-28T01:48:27;8.70;99.90
54930;DHT22;40833;53.238;6.576;2023-12-28T01:50:56;8.70;99.90
54930;DHT22;40833;53.238;6.576;2023-12-28T01:53:22;9.00;99.90
54930;DHT22;40833;53.238;6.576;2023-12-28T01:55:48;8.60;99.90
54930;DHT22;40833;53.238;6.576;2023-12-28T01:58:14;8.70;99.90
54930;DHT22;40833;53.238;6.576;2023-12-28T02:00:40;8.70;99.90
54930;DHT22;40833;53.238;6.576;2023-12-28T02:03:08;8.60;99.90
54930;DHT22;40833;53.238;6.576;2023-12-28T02:05:34;8.60;99.90
54930;DHT22;40833;53.238;6.576;2023-12-28T02:08:00;8.90;99.90
54930;DHT22;40833;53.238;6.576;2023-12-28T02:10:26;8.70;99.90
54930;DHT22;40833;53.238;6.576;2023-12-28T02:12:53;8.70;99.90
54930;DHT22;40833;53.238;6.576;2023-12-28T02:15:19;8.70;99.90
54930;DHT22;40833;53.238;6.576;2023-12-28T02:18:19;8.70;99.90
54930;DHT22;40833;53.238;6.576;2023-12-28T02:20:43;8.70;99.90
54930;DHT22;40833;53.238;6.576;2023-12-28T02:23:10;8.70;99.90
54930;DHT22;40833;53.238;6.576;2023-12-28T02:25:35;8.70;99.90
54930;DHT22;40833;53.238;6.576;2023-12-28T02:28:02;8.70;99.90
54930;DHT22;40833;53.238;6.576;2023-12-28T02:30:28;8.70;99.90
54930;DHT22;40833;53.238;6.576;2023-12-28T02:33:15;8.60;99.90
54930;DHT22;40833;53.238;6.576;2023-12-28T02:35:48;8.60;99.90
54930;DHT22;40833;53.238;6.576;2023-12-28T02:38:17;8.90;99.90
54930;DHT22;40833;53.238;6.576;2023-12-28T02:40:44;8.60;99.90
54930;DHT22;40833;53.238;6.576;2023-12-28T02:43:11;9.40;99.90
54930;DHT22;40833;53.238;6.576;2023-12-28T02:45:37;8.60;99.90
54930;DHT22;40833;53.238;6.576;2023-12-28T02:48:04;8.70;99.90
54930;DHT22;40833;53.238;6.576;2023-12-28T02:50:30;8.70;99.90
54930;DHT22;40833;53.238;6.576;2023-12-28T02:52:56;8.80;99.90
54930;DHT22;40833;53.238;6.576;2023-12-28T02:55:22;8.80;99.90
54930;DHT22;40833;53.238;6.576;2023-12-28T02:57:50;9.10;99.90
54930;DHT22;40833;53.238;6.576;2023-12-28T03:00:16;8.90;99.90
54930;DHT22;40833;53.238;6.576;2023-12-28T03:02:42;8.80;99.90
54930;DHT22;40833;53.238;6.576;2023-12-28T03:05:08;8.90;99.90
54930;DHT22;40833;53.238;6.576;2023-12-28T03:07:34;8.90;99.90
54930;DHT22;40833;53.238;6.576;2023-12-28T03:10:00;9.00;99.90
54930;DHT22;40833;53.238;6.576;2023-12-28T03:12:27;9.00;99.90
54930;DHT22;40833;53.238;6.576;2023-12-28T03:14:53;9.10;99.90
54930;DHT22;40833;53.238;6.576;2023-12-28T03:17:19;9.40;99.90
54930;DHT22;40833;53.238;6.576;2023-12-28T03:19:44;9.20;99.90
54930;DHT22;40833;53.238;6.576;2023-12-28T03:22:10;10.00;99.90
54930;DHT22;40833;53.238;6.576;2023-12-28T03:24:39;9.20;99.90
54930;DHT22;40833;53.238;6.576;2023-12-28T03:27:06;9.30;99.90
54930;DHT22;40833;53.238;6.576;2023-12-28T03:29:32;9.30;99.90
54930;DHT22;40833;53.238;6.576;2023-12-28T03:31:57;9.30;99.90
54930;DHT22;40833;53.238;6.576;2023-12-28T03:34:24;9.40;99.90
54930;DHT22;40833;53.238;6.576;2023-12-28T03:36:52;9.40;99.90
54930;DHT22;40833;53.238;6.576;2023-12-28T03:39:17;9.40;99.90
54930;DHT22;40833;53.238;6.576;2023-12-28T03:41:43;9.40;99.90
54930;DHT22;40833;53.238;6.576;2023-12-28T03:44:09;9.70;99.90
54930;DHT22;40833;53.238;6.576;2023-12-28T03:46:34;9.50;99.90
54930;DHT22;40833;53.238;6.576;2023-12-28T03:49:00;9.50;99.90
54930;DHT22;40833;53.238;6.576;2023-12-28T03:51:26;9.60;99.90
54930;DHT22;40833;53.238;6.576;2023-12-28T03:53:51;10.00;99.90
54930;DHT22;40833;53.238;6.576;2023-12-28T03:56:27;9.60;99.90
54930;DHT22;40833;53.238;6.576;2023-12-28T03:58:54;9.80;99.90
54930;DHT22;40833;53.238;6.576;2023-12-28T04:01:21;9.60;99.90
54930;DHT22;40833;53.238;6.576;2023-12-28T04:03:47;9.60;99.90
54930;DHT22;40833;53.238;6.576;2023-12-28T04:06:13;9.60;99.90
54930;DHT22;40833;53.238;6.576;2023-12-28T04:08:42;9.80;99.90
54930;DHT22;40833;53.238;6.576;2023-12-28T04:11:08;9.60;99.90
54930;DHT22;40833;53.238;6.576;2023-12-28T04:13:35;9.70;99.90
54930;DHT22;40833;53.238;6.576;2023-12-28T04:16:00;9.70;99.90
54930;DHT22;40833;53.238;6.576;2023-12-28T04:18:26;9.70;99.90
54930;DHT22;40833;53.238;6.576;2023-12-28T04:20:52;9.70;99.90
54930;DHT22;40833;53.238;6.576;2023-12-28T04:23:18;9.80;99.90
54930;DHT22;40833;53.238;6.576;2023-12-28T04:25:43;9.80;99.90
54930;DHT22;40833;53.238;6.576;2023-12-28T04:28:09;9.80;99.90
54930;DHT22;40833;53.238;6.576;2023-12-28T04:30:36;9.80;99.90
54930;DHT22;40833;53.238;6.576;2023-12-28T04:33:01;9.80;99.90
54930;DHT22;40833;53.238;6.576;2023-12-28T04:35:27;9.80;99.90
54930;DHT22;40833;53.238;6.576;2023-12-28T04:37:54;9.90;99.90
54930;DHT22;40833;53.238;6.576;2023-12-28T04:40:20;10.20;99.90
54930;DHT22;40833;53.238;6.576;2023-12-28T04:42:46;10.10;99.90
54930;DHT22;40833;53.238;6.576;2023-12-28T04:45:11;9.90;99.90
54930;DHT22;40833;53.238;6.576;2023-12-28T04:47:37;9.90;99.90
54930;DHT22;40833;53.238;6.576;2023-12-28T04:50:04;9.90;99.90
54930;DHT22;40833;53.238;6.576;2023-12-28T04:52:30;9.90;99.90
54930;DHT22;40833;53.238;6.576;2023-12-28T04:54:57;10.00;99.90
54930;DHT22;40833;53.238;6.576;2023-12-28T04:57:23;10.00;99.90
54930;DHT22;40833;53.238;6.576;2023-12-28T04:59:51;10.00;99.90
54930;DHT22;40833;53.238;6.576;2023-12-28T05:02:17;10.00;99.90
54930;DHT22;40833;53.238;6.576;2023-12-28T05:04:43;10.10;99.90
54930;DHT22;40833;53.238;6.576;2023-12-28T05:07:09;10.20;99.90
54930;DHT22;40833;53.238;6.576;2023-12-28T05:09:35;10.00;99.90
54930;DHT22;40833;53.238;6.576;2023-12-28T05:12:01;10.10;99.90
54930;DHT22;40833;53.238;6.576;2023-12-28T05:14:26;10.10;99.90
54930;DHT22;40833;53.238;6.576;2023-12-28T05:16:52;10.10;99.90
54930;DHT22;40833;53.238;6.576;2023-12-28T05:19:18;10.10;99.90
54930;DHT22;40833;53.238;6.576;2023-12-28T05:21:43;10.00;99.90
54930;DHT22;40833;53.238;6.576;2023-12-28T05:24:09;10.10;99.90
54930;DHT22;40833;53.238;6.576;2023-12-28T05:26:35;10.30;99.90
54930;DHT22;40833;53.238;6.576;2023-12-28T05:29:00;10.00;99.90
54930;DHT22;40833;53.238;6.576;2023-12-28T05:31:26;10.00;99.90
54930;DHT22;40833;53.238;6.576;2023-12-28T05:33:52;10.00;99.90
54930;DHT22;40833;53.238;6.576;2023-12-28T05:36:18;10.00;99.90
54930;DHT22;40833;53.238;6.576;2023-12-28T05:38:43;10.00;99.90
54930;DHT22;40833;53.238;6.576;2023-12-28T05:41:12;10.10;99.90
54930;DHT22;40833;53.238;6.576;2023-12-28T05:43:38;10.10;99.90
54930;DHT22;40833;53.238;6.576;2023-12-28T05:46:04;10.10;99.90
54930;DHT22;40833;53.238;6.576;2023-12-28T05:48:30;10.10;99.90
54930;DHT22;40833;53.238;6.576;2023-12-28T05:50:59;10.20;99.90
54930;DHT22;40833;53.238;6.576;2023-12-28T05:53:25;10.30;99.90
54930;DHT22;40833;53.238;6.576;2023-12-28T05:55:52;10.10;99.90
54930;DHT22;40833;53.238;6.576;2023-12-28T05:58:18;10.10;99.90
54930;DHT22;40833;53.238;6.576;2023-12-28T06:00:43;10.10;99.90
54930;DHT22;40833;53.238;6.576;2023-12-28T06:03:11;10.10;99.90
54930;DHT22;40833;53.238;6.576;2023-12-28T06:05:37;10.10;99.90
54930;DHT22;40833;53.238;6.576;2023-12-28T06:08:03;10.10;99.90
54930;DHT22;40833;53.238;6.576;2023-12-28T06:10:29;10.10;99.90
54930;DHT22;40833;53.238;6.576;2023-12-28T06:12:55;10.10;99.90
54930;DHT22;40833;53.238;6.576;2023-12-28T06:15:20;10.20;99.90
54930;DHT22;40833;53.238;6.576;2023-12-28T06:17:46;10.00;99.90
54930;DHT22;40833;53.238;6.576;2023-12-28T06:20:12;10.00;99.90
54930;DHT22;40833;53.238;6.576;2023-12-28T06:22:37;10.00;99.90
54930;DHT22;40833;53.238;6.576;2023-12-28T06:25:04;10.00;99.90
54930;DHT22;40833;53.238;6.576;2023-12-28T06:27:30;10.00;99.90
54930;DHT22;40833;53.238;6.576;2023-12-28T06:29:56;10.00;99.90
54930;DHT22;40833;53.238;6.576;2023-12-28T06:32:21;10.00;99.90
54930;DHT22;40833;53.238;6.576;2023-12-28T06:34:47;10.10;99.90
54930;DHT22;40833;53.238;6.576;2023-12-28T06:37:14;10.10;99.90
54930;DHT22;40833;53.238;6.576;2023-12-28T06:39:39;10.10;99.90
54930;DHT22;40833;53.238;6.576;2023-12-28T06:42:05;10.60;99.90
54930;DHT22;40833;53.238;6.576;2023-12-28T06:44:31;10.10;99.90
54930;DHT22;40833;53.238;6.576;2023-12-28T06:46:57;10.10;99.90
54930;DHT22;40833;53.238;6.576;2023-12-28T06:49:24;10.50;99.90
54930;DHT22;40833;53.238;6.576;2023-12-28T06:51:49;10.60;99.90
54930;DHT22;40833;53.238;6.576;2023-12-28T06:54:15;10.20;99.90
54930;DHT22;40833;53.238;6.576;2023-12-28T06:56:41;10.20;99.90
54930;DHT22;40833;53.238;6.576;2023-12-28T06:59:07;10.20;99.90
54930;DHT22;40833;53.238;6.576;2023-12-28T07:01:40;10.20;99.90
54930;DHT22;40833;53.238;6.576;2023-12-28T07:04:05;10.30;99.90
54930;DHT22;40833;53.238;6.576;2023-12-28T07:06:31;10.30;99.90
54930;DHT22;40833;53.238;6.576;2023-12-28T07:08:57;10.30;99.90
54930;DHT22;40833;53.238;6.576;2023-12-28T07:11:23;10.20;99.90
54930;DHT22;40833;53.238;6.576;2023-12-28T07:13:48;10.30;99.90
54930;DHT22;40833;53.238;6.576;2023-12-28T07:16:14;10.30;99.90
54930;DHT22;40833;53.238;6.576;2023-12-28T07:18:41;10.60;99.90
54930;DHT22;40833;53.238;6.576;2023-12-28T07:21:07;10.30;99.90
54930;DHT22;40833;53.238;6.576;2023-12-28T07:23:36;10.30;99.90
54930;DHT22;40833;53.238;6.576;2023-12-28T07:26:02;10.30;99.90
54930;DHT22;40833;53.238;6.576;2023-12-28T07:28:28;10.30;99.90
54930;DHT22;40833;53.238;6.576;2023-12-28T07:30:54;10.70;99.90
54930;DHT22;40833;53.238;6.576;2023-12-28T07:33:20;10.40;99.90
54930;DHT22;40833;53.238;6.576;2023-12-28T07:35:46;10.30;99.90
54930;DHT22;40833;53.238;6.576;2023-12-28T07:38:12;10.30;99.90
54930;DHT22;40833;53.238;6.576;2023-12-28T07:40:37;10.50;99.90
54930;DHT22;40833;53.238;6.576;2023-12-28T07:43:03;10.30;99.90
54930;DHT22;40833;53.238;6.576;2023-12-28T07:45:29;10.50;99.90
54930;DHT22;40833;53.238;6.576;2023-12-28T07:47:55;10.20;99.90
54930;DHT22;40833;53.238;6.576;2023-12-28T07:50:22;10.30;99.90
54930;DHT22;40833;53.238;6.576;2023-12-28T07:52:48;10.30;99.90
54930;DHT22;40833;53.238;6.576;2023-12-28T07:55:14;10.30;99.90
54930;DHT22;40833;53.238;6.576;2023-12-28T07:57:40;10.30;99.90
54930;DHT22;40833;53.238;6.576;2023-12-28T08:00:07;10.30;99.90
54930;DHT22;40833;53.238;6.576;2023-12-28T08:02:33;10.30;99.90
54930;DHT22;40833;53.238;6.576;2023-12-28T08:04:58;10.30;99.90
54930;DHT22;40833;53.238;6.576;2023-12-28T08:07:24;10.10;99.90
54930;DHT22;40833;53.238;6.576;2023-12-28T08:09:50;10.30;99.90
54930;DHT22;40833;53.238;6.576;2023-12-28T08:12:16;10.40;99.90
54930;DHT22;40833;53.238;6.576;2023-12-28T08:14:43;10.60;99.90
54930;DHT22;40833;53.238;6.576;2023-12-28T08:17:08;10.40;99.90
54930;DHT22;40833;53.238;6.576;2023-12-28T08:19:34;10.70;99.90
54930;DHT22;40833;53.238;6.576;2023-12-28T08:22:00;10.50;99.90
54930;DHT22;40833;53.238;6.576;2023-12-28T08:24:25;10.50;99.90
54930;DHT22;40833;53.238;6.576;2023-12-28T08:26:51;8.50;99.90
54930;DHT22;40833;53.238;6.576;2023-12-28T08:29:18;10.60;99.90
54930;DHT22;40833;53.238;6.576;2023-12-28T08:31:44;10.60;99.90
54930;DHT22;40833;53.238;6.576;2023-12-28T08:34:10;10.60;99.90
54930;DHT22;40833;53.238;6.576;2023-12-28T08:36:35;10.60;99.90
54930;DHT22;40833;53.238;6.576;2023-12-28T08:39:01;10.80;99.90
54930;DHT22;40833;53.238;6.576;2023-12-28T08:41:27;10.70;99.90
54930;DHT22;40833;53.238;6.576;2023-12-28T08:43:53;10.70;99.90
54930;DHT22;40833;53.238;6.576;2023-12-28T08:46:21;10.70;99.90
54930;DHT22;40833;53.238;6.576;2023-12-28T08:48:47;10.70;99.90
54930;DHT22;40833;53.238;6.576;2023-12-28T08:51:12;10.70;99.90
54930;DHT22;40833;53.238;6.576;2023-12-28T08:53:40;10.70;99.90
54930;DHT22;40833;53.238;6.576;2023-12-28T08:56:32;10.70;99.90
54930;DHT22;40833;53.238;6.576;2023-12-28T08:58:58;10.80;99.90
54930;DHT22;40833;53.238;6.576;2023-12-28T09:01:24;10.80;99.90
54930;DHT22;40833;53.238;6.576;2023-12-28T09:03:54;10.70;99.90
54930;DHT22;40833;53.238;6.576;2023-12-28T09:06:21;10.80;99.90
54930;DHT22;40833;53.238;6.576;2023-12-28T09:08:51;10.80;99.90
54930;DHT22;40833;53.238;6.576;2023-12-28T09:11:18;10.80;99.90
54930;DHT22;40833;53.238;6.576;2023-12-28T09:13:44;10.90;99.90
54930;DHT22;40833;53.238;6.576;2023-12-28T09:16:11;10.80;99.90
54930;DHT22;40833;53.238;6.576;2023-12-28T09:18:38;10.80;99.90
54930;DHT22;40833;53.238;6.576;2023-12-28T09:21:05;10.80;99.90
54930;DHT22;40833;53.238;6.576;2023-12-28T09:23:32;10.80;99.90
54930;DHT22;40833;53.238;6.576;2023-12-28T09:26:02;10.80;99.90
54930;DHT22;40833;53.238;6.576;2023-12-28T09:28:29;10.90;99.90
54930;DHT22;40833;53.238;6.576;2023-12-28T09:30:54;10.90;99.90
54930;DHT22;40833;53.238;6.576;2023-12-28T09:33:20;11.00;99.90
54930;DHT22;40833;53.238;6.576;2023-12-28T09:35:46;10.90;99.90
54930;DHT22;40833;53.238;6.576;2023-12-28T09:38:13;10.90;99.90
54930;DHT22;40833;53.238;6.576;2023-12-28T09:40:41;11.00;99.90
54930;DHT22;40833;53.238;6.576;2023-12-28T09:43:23;11.00;99.90
54930;DHT22;40833;53.238;6.576;2023-12-28T09:45:52;11.00;99.90
54930;DHT22;40833;53.238;6.576;2023-12-28T09:48:20;11.00;99.90
54930;DHT22;40833;53.238;6.576;2023-12-28T09:50:52;11.00;99.90
54930;DHT22;40833;53.238;6.576;2023-12-28T09:53:21;11.00;99.90
54930;DHT22;40833;53.238;6.576;2023-12-28T09:55:48;11.00;99.90
54930;DHT22;40833;53.238;6.576;2023-12-28T09:58:17;10.90;99.90
54930;DHT22;40833;53.238;6.576;2023-12-28T10:00:48;10.90;99.90
54930;DHT22;40833;53.238;6.576;2023-12-28T10:03:15;11.10;99.90
54930;DHT22;40833;53.238;6.576;2023-12-28T10:05:41;10.90;99.90
54930;DHT22;40833;53.238;6.576;2023-12-28T10:08:08;10.80;99.90
54930;DHT22;40833;53.238;6.576;2023-12-28T10:10:34;10.80;99.90
54930;DHT22;40833;53.238;6.576;2023-12-28T10:13:00;10.90;99.90
54930;DHT22;40833;53.238;6.576;2023-12-28T10:15:25;10.80;99.90
54930;DHT22;40833;53.238;6.576;2023-12-28T10:17:52;10.80;99.90
54930;DHT22;40833;53.238;6.576;2023-12-28T10:20:18;10.80;99.90
54930;DHT22;40833;53.238;6.576;2023-12-28T10:22:44;10.90;99.90
54930;DHT22;40833;53.238;6.576;2023-12-28T10:25:11;10.90;99.90
54930;DHT22;40833;53.238;6.576;2023-12-28T10:27:39;10.90;99.90
54930;DHT22;40833;53.238;6.576;2023-12-28T10:30:08;10.90;99.90
54930;DHT22;40833;53.238;6.576;2023-12-28T10:32:35;10.90;99.90
54930;DHT22;40833;53.238;6.576;2023-12-28T10:35:01;10.90;99.90
54930;DHT22;40833;53.238;6.576;2023-12-28T10:37:31;10.90;99.90
54930;DHT22;40833;53.238;6.576;2023-12-28T10:39:59;10.90;99.90
54930;DHT22;40833;53.238;6.576;2023-12-28T10:42:29;10.90;99.90
54930;DHT22;40833;53.238;6.576;2023-12-28T10:45:02;10.90;99.90
54930;DHT22;40833;53.238;6.576;2023-12-28T10:47:37;11.00;99.90
54930;DHT22;40833;53.238;6.576;2023-12-28T10:50:04;11.00;99.90
54930;DHT22;40833;53.238;6.576;2023-12-28T10:52:34;11.00;99.90
54930;DHT22;40833;53.238;6.576;2023-12-28T10:57:40;11.00;99.90
54930;DHT22;40833;53.238;6.576;2023-12-28T11:00:11;11.10;99.90
54930;DHT22;40833;53.238;6.576;2023-12-28T11:02:47;11.00;99.90
54930;DHT22;40833;53.238;6.576;2023-12-28T11:05:17;11.00;99.90
54930;DHT22;40833;53.238;6.576;2023-12-28T11:07:45;11.00;99.90
54930;DHT22;40833;53.238;6.576;2023-12-28T11:10:14;10.90;99.90
54930;DHT22;40833;53.238;6.576;2023-12-28T11:12:39;10.90;99.90
54930;DHT22;40833;53.238;6.576;2023-12-28T11:15:07;11.00;99.90
54930;DHT22;40833;53.238;6.576;2023-12-28T11:17:35;11.10;99.90
54930;DHT22;40833;53.238;6.576;2023-12-28T11:20:03;10.90;99.90
54930;DHT22;40833;53.238;6.576;2023-12-28T11:22:31;10.90;99.90
54930;DHT22;40833;53.238;6.576;2023-12-28T11:24:57;11.00;99.90
54930;DHT22;40833;53.238;6.576;2023-12-28T11:27:24;11.00;99.90
54930;DHT22;40833;53.238;6.576;2023-12-28T11:29:49;11.00;99.90
54930;DHT22;40833;53.238;6.576;2023-12-28T11:32:17;11.00;99.90
54930;DHT22;40833;53.238;6.576;2023-12-28T11:34:44;11.00;99.90
54930;DHT22;40833;53.238;6.576;2023-12-28T11:37:16;11.10;99.90
54930;DHT22;40833;53.238;6.576;2023-12-28T11:39:44;11.10;99.90
54930;DHT22;40833;53.238;6.576;2023-12-28T11:42:10;11.10;99.90
54930;DHT22;40833;53.238;6.576;2023-12-28T11:44:43;11.10;99.90
54930;DHT22;40833;53.238;6.576;2023-12-28T11:47:21;11.10;99.90
54930;DHT22;40833;53.238;6.576;2023-12-28T11:49:48;11.10;99.90
54930;DHT22;40833;53.238;6.576;2023-12-28T11:52:46;11.00;99.90
54930;DHT22;40833;53.238;6.576;2023-12-28T11:55:21;11.00;99.90
54930;DHT22;40833;53.238;6.576;2023-12-28T11:57:47;11.00;99.90
54930;DHT22;40833;53.238;6.576;2023-12-28T12:00:13;11.10;99.90
54930;DHT22;40833;53.238;6.576;2023-12-28T12:02:43;10.90;99.90
54930;DHT22;40833;53.238;6.576;2023-12-28T12:05:10;10.90;99.90
54930;DHT22;40833;53.238;6.576;2023-12-28T12:07:37;10.90;99.90
54930;DHT22;40833;53.238;6.576;2023-12-28T12:10:03;10.90;99.90
54930;DHT22;40833;53.238;6.576;2023-12-28T12:12:29;10.90;99.90
54930;DHT22;40833;53.238;6.576;2023-12-28T12:14:55;10.90;99.90
54930;DHT22;40833;53.238;6.576;2023-12-28T12:17:21;11.00;99.90
54930;DHT22;40833;53.238;6.576;2023-12-28T12:19:47;11.00;99.90
54930;DHT22;40833;53.238;6.576;2023-12-28T12:22:16;11.30;99.90
54930;DHT22;40833;53.238;6.576;2023-12-28T12:24:47;11.10;99.90
54930;DHT22;40833;53.238;6.576;2023-12-28T12:27:14;10.80;99.90
54930;DHT22;40833;53.238;6.576;2023-12-28T12:29:40;10.80;99.90
54930;DHT22;40833;53.238;6.576;2023-12-28T12:32:05;10.80;99.90
54930;DHT22;40833;53.238;6.576;2023-12-28T12:34:32;11.00;99.90
54930;DHT22;40833;53.238;6.576;2023-12-28T12:36:59;10.80;99.90
54930;DHT22;40833;53.238;6.576;2023-12-28T12:39:26;10.80;99.90
54930;DHT22;40833;53.238;6.576;2023-12-28T12:41:52;10.80;99.90
54930;DHT22;40833;53.238;6.576;2023-12-28T12:44:21;10.80;99.90
54930;DHT22;40833;53.238;6.576;2023-12-28T12:46:47;11.00;99.90
54930;DHT22;40833;53.238;6.576;2023-12-28T12:49:12;10.80;99.90
54930;DHT22;40833;53.238;6.576;2023-12-28T12:51:38;11.00;99.90
54930;DHT22;40833;53.238;6.576;2023-12-28T12:54:06;10.80;99.90
54930;DHT22;40833;53.238;6.576;2023-12-28T12:56:34;10.80;99.90
54930;DHT22;40833;53.238;6.576;2023-12-28T12:59:00;10.90;99.90
54930;DHT22;40833;53.238;6.576;2023-12-28T13:01:26;11.00;99.90
54930;DHT22;40833;53.238;6.576;2023-12-28T13:03:56;10.90;99.90
54930;DHT22;40833;53.238;6.576;2023-12-28T13:06:22;11.00;99.90
54930;DHT22;40833;53.238;6.576;2023-12-28T13:08:48;11.00;99.90
54930;DHT22;40833;53.238;6.576;2023-12-28T13:11:14;11.00;99.90
54930;DHT22;40833;53.238;6.576;2023-12-28T13:13:41;11.00;99.90
54930;DHT22;40833;53.238;6.576;2023-12-28T13:16:06;11.00;99.90
54930;DHT22;40833;53.238;6.576;2023-12-28T13:18:32;11.00;99.90
54930;DHT22;40833;53.238;6.576;2023-12-28T13:21:01;11.00;99.90
54930;DHT22;40833;53.238;6.576;2023-12-28T13:23:27;11.00;99.90
54930;DHT22;40833;53.238;6.576;2023-12-28T13:25:54;11.00;99.90
54930;DHT22;40833;53.238;6.576;2023-12-28T13:28:20;11.00;99.90
54930;DHT22;40833;53.238;6.576;2023-12-28T13:30:46;11.00;99.90
54930;DHT22;40833;53.238;6.576;2023-12-28T13:33:11;10.90;99.90
54930;DHT22;40833;53.238;6.576;2023-12-28T13:35:37;11.20;99.90
54930;DHT22;40833;53.238;6.576;2023-12-28T13:38:03;10.90;99.90
54930;DHT22;40833;53.238;6.576;2023-12-28T13:40:29;10.90;99.90
54930;DHT22;40833;53.238;6.576;2023-12-28T13:42:56;10.90;99.90
54930;DHT22;40833;53.238;6.576;2023-12-28T13:45:22;10.90;99.90
54930;DHT22;40833;53.238;6.576;2023-12-28T13:47:48;10.90;99.90
54930;DHT22;40833;53.238;6.576;2023-12-28T13:50:13;10.90;99.90
54930;DHT22;40833;53.238;6.576;2023-12-28T13:52:39;10.90;99.90
54930;DHT22;40833;53.238;6.576;2023-12-28T13:55:05;10.90;99.90
54930;DHT22;40833;53.238;6.576;2023-12-28T13:57:31;10.90;99.90
54930;DHT22;40833;53.238;6.576;2023-12-28T13:59:57;11.10;99.90
54930;DHT22;40833;53.238;6.576;2023-12-28T14:02:26;10.80;99.90
54930;DHT22;40833;53.238;6.576;2023-12-28T14:04:52;10.80;99.90
54930;DHT22;40833;53.238;6.576;2023-12-28T14:07:19;10.80;99.90
54930;DHT22;40833;53.238;6.576;2023-12-28T14:09:45;10.80;99.90
54930;DHT22;40833;53.238;6.576;2023-12-28T14:12:10;10.80;99.90
54930;DHT22;40833;53.238;6.576;2023-12-28T14:14:36;10.80;99.90
54930;DHT22;40833;53.238;6.576;2023-12-28T14:17:02;10.80;99.90
54930;DHT22;40833;53.238;6.576;2023-12-28T14:19:30;10.80;99.90
54930;DHT22;40833;53.238;6.576;2023-12-28T14:21:56;10.80;99.90
54930;DHT22;40833;53.238;6.576;2023-12-28T14:24:21;10.70;99.90
54930;DHT22;40833;53.238;6.576;2023-12-28T14:26:48;10.70;99.90
54930;DHT22;40833;53.238;6.576;2023-12-28T14:29:16;10.70;99.90
54930;DHT22;40833;53.238;6.576;2023-12-28T14:31:42;10.70;99.90
54930;DHT22;40833;53.238;6.576;2023-12-28T14:34:09;10.70;99.90
54930;DHT22;40833;53.238;6.576;2023-12-28T14:36:36;10.60;99.90
54930;DHT22;40833;53.238;6.576;2023-12-28T14:39:12;10.50;99.90
54930;DHT22;40833;53.238;6.576;2023-12-28T14:41:38;10.50;99.90
54930;DHT22;40833;53.238;6.576;2023-12-28T14:44:04;10.40;99.90
54930;DHT22;40833;53.238;6.576;2023-12-28T14:46:30;10.30;99.90
54930;DHT22;40833;53.238;6.576;2023-12-28T14:48:56;10.20;99.90
54930;DHT22;40833;53.238;6.576;2023-12-28T14:51:22;10.10;99.90
54930;DHT22;40833;53.238;6.576;2023-12-28T14:53:48;10.00;99.90
54930;DHT22;40833;53.238;6.576;2023-12-28T14:56:14;10.00;99.90
54930;DHT22;40833;53.238;6.576;2023-12-28T14:58:42;9.90;99.90
54930;DHT22;40833;53.238;6.576;2023-12-28T15:01:11;9.90;99.90
54930;DHT22;40833;53.238;6.576;2023-12-28T15:03:37;9.90;99.90
54930;DHT22;40833;53.238;6.576;2023-12-28T15:06:06;9.90;99.90
54930;DHT22;40833;53.238;6.576;2023-12-28T15:08:32;9.80;99.90
54930;DHT22;40833;53.238;6.576;2023-12-28T15:10:58;9.80;99.90
54930;DHT22;40833;53.238;6.576;2023-12-28T15:13:25;9.80;99.90
54930;DHT22;40833;53.238;6.576;2023-12-28T15:15:51;9.80;99.90
54930;DHT22;40833;53.238;6.576;2023-12-28T15:18:18;9.80;99.90
54930;DHT22;40833;53.238;6.576;2023-12-28T15:20:47;9.80;99.90
54930;DHT22;40833;53.238;6.576;2023-12-28T15:23:15;9.80;99.90
54930;DHT22;40833;53.238;6.576;2023-12-28T15:25:44;9.80;99.90
54930;DHT22;40833;53.238;6.576;2023-12-28T15:28:10;10.10;99.90
54930;DHT22;40833;53.238;6.576;2023-12-28T15:30:36;9.70;99.90
54930;DHT22;40833;53.238;6.576;2023-12-28T15:33:01;9.70;99.90
54930;DHT22;40833;53.238;6.576;2023-12-28T15:35:27;9.70;99.90